Time;durP1;ratioP1;P1;durP2;ratioP2;P2;SDS_P1;SDS_P2;PMS_P1;PMS_P2;Temp;Humidity;BMP_temperature;BMP_pressure;BME280_temperature;BME280_humidity;BME280_pressure;Samples;Min_cycle;Max_cycle;Signal;HPM_P1;HPM_P2
2022/05/18 00:02:07;;;;;;;4.95;1.60;;;;;;;10.10;54.86;99726.19;4110023;85;21079;-84
2022/05/18 00:08:09;;;;;;;3.75;1.55;;;;;;;10.09;55.93;99723.81;4119947;85;21603;-84
2022/05/18 00:14:12;;;;;;;5.33;1.90;;;;;;;10.11;56.28;99735.20;4121889;85;21125;-84
2022/05/18 00:20:14;;;;;;;7.75;2.20;;;;;;;10.01;56.76;99739.79;4122778;85;21751;-86
2022/05/18 00:26:15;;;;;;;5.67;2.50;;;;;;;9.79;57.79;99750.77;4109002;85;21113;-88
2022/05/18 00:32:16;;;;;;;6.62;2.42;;;;;;;9.47;56.96;99759.48;4124132;85;21185;-84
2022/05/18 00:38:18;;;;;;;7.75;2.87;;;;;;;9.15;57.05;99767.93;4109282;85;21042;-84
2022/05/18 00:44:21;;;;;;;5.33;2.58;;;;;;;8.69;56.70;99769.88;4100508;85;21094;-84
2022/05/18 00:50:30;;;;;;;9.95;2.25;;;;;;;8.36;57.70;99782.30;4105965;85;21770;-84
2022/05/18 00:56:37;;;;;;;7.58;2.37;;;;;;;8.21;58.52;99799.30;4105601;85;21074;-85
2022/05/18 01:02:42;;;;;;;6.87;2.70;;;;;;;8.10;58.20;99805.55;4100487;85;21074;-86
2022/05/18 01:09:08;;;;;;;8.38;2.40;;;;;;;7.83;59.21;99815.92;4115042;84;21106;-85
2022/05/18 01:15:13;;;;;;;4.75;2.40;;;;;;;7.63;59.79;99815.41;4116630;85;21062;-85
2022/05/18 01:21:14;;;;;;;7.35;2.25;;;;;;;7.54;60.53;99835.70;4113526;85;21063;-86
2022/05/18 01:27:16;;;;;;;7.67;1.98;;;;;;;7.42;59.54;99847.33;4112094;85;21066;-84
2022/05/18 01:33:21;;;;;;;5.65;2.30;;;;;;;7.24;60.21;99851.33;4118139;85;21105;-88
2022/05/18 01:39:34;;;;;;;6.42;2.00;;;;;;;7.17;59.70;99861.16;4104132;85;21540;-84
2022/05/18 01:45:36;;;;;;;6.67;2.00;;;;;;;7.17;60.39;99866.02;4111062;85;21099;-86
2022/05/18 01:51:45;;;;;;;5.10;1.95;;;;;;;7.12;60.11;99868.16;4110011;85;21086;-84
2022/05/18 01:57:46;;;;;;;7.12;2.40;;;;;;;7.09;60.15;99876.99;4113644;85;21046;-83
2022/05/18 02:03:48;;;;;;;2.65;1.60;;;;;;;7.01;60.99;99890.90;4117528;85;21049;-87
2022/05/18 02:09:50;;;;;;;5.08;2.37;;;;;;;6.92;62.04;99894.21;4104573;85;21153;-84
2022/05/18 02:15:51;;;;;;;4.17;1.65;;;;;;;6.94;61.81;99893.91;4117829;85;22657;-83
2022/05/18 02:21:52;;;;;;;4.28;1.42;;;;;;;6.82;61.80;99908.21;4112051;85;21143;-84
2022/05/18 02:27:55;;;;;;;3.25;1.45;;;;;;;6.83;63.09;99911.74;4125784;85;22116;-85
2022/05/18 02:33:56;;;;;;;3.85;1.77;;;;;;;6.57;63.26;99929.53;4110836;84;21598;-84
2022/05/18 02:39:58;;;;;;;6.05;2.10;;;;;;;6.29;62.97;99931.87;4099346;85;21085;-84
2022/05/18 02:46:10;;;;;;;5.42;1.98;;;;;;;6.05;62.65;99937.02;4111522;85;21081;-85
2022/05/18 02:52:12;;;;;;;6.55;2.42;;;;;;;5.94;63.84;99948.53;4063221;87;21107;-84
2022/05/18 02:58:14;;;;;;;5.12;1.65;;;;;;;5.83;63.45;99958.94;4125980;85;21059;-85
2022/05/18 03:04:15;;;;;;;4.87;1.85;;;;;;;5.80;64.31;99967.70;4102633;85;21617;-86
2022/05/18 03:10:18;;;;;;;5.55;1.72;;;;;;;5.84;65.07;99978.19;4094108;85;21102;-82
2022/05/18 03:16:19;;;;;;;10.70;1.87;;;;;;;5.97;65.15;99986.75;4101799;85;21074;-85
2022/05/18 03:28:44;;;;;;;10.05;2.10;;;;;;;5.67;64.74;100003.19;4110698;85;21082;-88
2022/05/18 03:34:45;;;;;;;7.42;1.80;;;;;;;5.62;64.90;100010.13;4107411;85;21099;-89
2022/05/18 03:40:46;;;;;;;7.15;2.05;;;;;;;5.52;64.72;100009.87;4069625;85;34682;-86
2022/05/18 03:46:48;;;;;;;4.55;1.70;;;;;;;5.69;66.12;100025.38;4047060;86;21088;-85
2022/05/18 03:52:49;;;;;;;6.08;2.52;;;;;;;5.71;66.67;100036.73;4037201;86;21068;-85
2022/05/18 03:58:50;;;;;;;4.35;1.80;;;;;;;5.75;66.85;100046.65;4035549;86;21188;-82
2022/05/18 04:04:52;;;;;;;4.83;2.00;;;;;;;6.00;66.91;100049.17;4027860;86;21152;-85
2022/05/18 04:10:55;;;;;;;4.70;1.85;;;;;;;6.06;67.17;100048.70;4027166;86;21750;-82
2022/05/18 04:16:56;;;;;;;3.60;1.67;;;;;;;6.21;67.00;100061.02;4034760;86;21762;-85
2022/05/18 04:22:57;;;;;;;4.00;1.80;;;;;;;6.38;67.24;100077.33;4023822;86;21123;-84
2022/05/18 04:28:58;;;;;;;7.05;2.25;;;;;;;6.70;67.73;100081.45;4041354;86;22344;-85
2022/05/18 04:35:00;;;;;;;3.83;2.12;;;;;;;6.76;64.95;100077.44;4025603;86;21604;-85
2022/05/18 04:41:02;;;;;;;7.53;2.37;;;;;;;6.87;65.82;100082.78;4027841;86;21161;-86
2022/05/18 04:47:04;;;;;;;6.92;2.87;;;;;;;7.09;65.49;100079.83;4022246;86;21675;-83
2022/05/18 04:53:06;;;;;;;5.15;2.25;;;;;;;7.27;65.52;100092.25;4024840;86;21073;-85
2022/05/18 04:59:07;;;;;;;3.98;1.70;;;;;;;7.40;64.88;100087.16;4038209;86;21770;-86
2022/05/18 05:05:12;;;;;;;6.67;2.22;;;;;;;7.53;64.34;100098.41;4034705;86;21084;-83
2022/05/18 05:11:14;;;;;;;6.15;2.22;;;;;;;7.67;63.71;100104.42;4030073;86;21070;-89
2022/05/18 05:17:16;;;;;;;7.03;2.67;;;;;;;7.85;63.60;100122.27;4035951;86;21552;-85
2022/05/18 05:23:20;;;;;;;8.98;2.90;;;;;;;8.06;62.70;100121.74;4045581;86;21089;-87
2022/05/18 05:29:21;;;;;;;11.80;3.72;;;;;;;8.39;62.15;100125.95;4069919;86;21113;-83
2022/05/18 05:35:23;;;;;;;11.48;3.45;;;;;;;8.58;61.56;100137.97;4084044;86;21077;-87
2022/05/18 05:41:27;;;;;;;6.00;2.85;;;;;;;8.76;60.99;100148.18;4099191;86;21556;-85
2022/05/18 05:47:28;;;;;;;7.62;3.35;;;;;;;8.87;60.61;100152.90;4080549;86;21568;-85
2022/05/18 05:53:29;;;;;;;6.95;2.37;;;;;;;9.05;60.52;100154.91;4084152;85;21115;-85
2022/05/18 05:59:32;;;;;;;9.45;2.47;;;;;;;9.03;59.47;100162.07;4086051;86;21079;-86
2022/05/18 06:05:34;;;;;;;7.30;2.30;;;;;;;9.12;59.38;100166.88;4098514;86;21037;-91
2022/05/18 06:11:36;;;;;;;7.25;2.50;;;;;;;9.21;58.52;100175.77;4074016;86;21914;-87
2022/05/18 06:17:40;;;;;;;9.50;2.27;;;;;;;9.27;58.33;100181.84;4070788;86;21615;-88
2022/05/18 06:23:42;;;;;;;5.10;1.72;;;;;;;9.51;57.93;100195.54;4077768;86;21101;-92
2022/05/18 06:29:44;;;;;;;10.13;2.98;;;;;;;9.73;57.47;100200.59;4086787;86;21164;-93
2022/05/18 06:35:47;;;;;;;4.12;2.40;;;;;;;9.96;57.19;100207.80;4092389;86;21132;-90
2022/05/18 06:41:49;;;;;;;4.50;2.25;;;;;;;10.16;57.17;100213.20;4095066;86;21060;-87
2022/05/18 06:47:50;;;;;;;5.80;1.95;;;;;;;10.02;52.88;100220.91;4085888;86;21707;-86
2022/05/18 06:53:53;;;;;;;2.37;1.52;;;;;;;10.20;53.76;100221.49;4093634;86;21154;-85
2022/05/18 06:59:54;;;;;;;5.70;2.08;;;;;;;10.77;54.55;100238.55;4090294;86;21256;-86
2022/05/18 07:05:55;;;;;;;3.52;2.62;;;;;;;11.62;54.58;100240.37;4110479;86;21119;-87
2022/05/18 07:11:57;;;;;;;8.53;1.50;;;;;;;12.10;53.51;100247.73;4108000;85;21087;-86
2022/05/18 07:17:59;;;;;;;4.62;1.92;;;;;;;12.45;52.82;100242.27;4083844;86;21090;-87
2022/05/18 07:24:00;;;;;;;4.08;1.30;;;;;;;12.76;50.15;100256.52;4064620;86;22542;-87
2022/05/18 07:37:59;;;;;;;4.37;1.45;;;;;;;13.81;50.60;100257.33;4608102;75;20992;-80
2022/05/18 07:44:00;;;;;;;7.00;1.60;;;;;;;14.42;48.54;100263.52;4578080;75;21949;-81
2022/05/18 07:50:02;;;;;;;6.55;1.50;;;;;;;14.70;49.15;100269.45;4592399;75;21447;-81
2022/05/18 07:56:05;;;;;;;6.37;1.30;;;;;;;15.06;47.12;100266.02;4588909;75;20953;-81
2022/05/18 08:02:06;;;;;;;6.83;1.42;;;;;;;15.37;47.94;100278.05;4588049;75;20968;-80
2022/05/18 08:08:15;;;;;;;5.10;1.77;;;;;;;15.65;43.79;100258.27;4613091;75;20996;-81
2022/05/18 08:20:40;;;;;;;4.90;1.47;;;;;;;15.35;44.20;100274.05;4566149;75;21963;-79
2022/05/18 08:26:42;;;;;;;4.95;1.52;;;;;;;15.38;41.20;100285.17;4602286;75;21010;-81
2022/05/18 08:32:43;;;;;;;4.37;1.35;;;;;;;15.42;41.44;100284.64;4603309;75;21068;-81
2022/05/18 08:38:45;;;;;;;3.85;1.25;;;;;;;15.46;41.81;100283.28;4583818;75;21950;-80
2022/05/18 08:44:48;;;;;;;6.00;1.98;;;;;;;15.11;40.28;100284.20;4597377;75;21061;-81
2022/05/18 08:50:54;;;;;;;5.47;1.80;;;;;;;15.22;40.33;100289.27;4608390;75;21052;-81
2022/05/18 08:56:58;;;;;;;5.15;1.87;;;;;;;15.09;38.98;100294.23;4589874;75;21021;-81
2022/05/18 09:03:17;;;;;;;8.10;2.80;;;;;;;14.84;38.41;100296.42;4598541;75;21057;-80
2022/05/18 09:16:39;;;;;;;3.92;1.87;;;;;;;15.40;38.97;100293.88;4601549;75;21660;-81
2022/05/18 09:22:57;;;;;;;8.70;1.80;;;;;;;15.50;37.05;100295.95;4584022;75;21018;-81
2022/05/18 09:29:22;;;;;;;3.47;1.80;;;;;;;16.27;36.44;100288.27;4606357;75;21035;-80
2022/05/18 09:35:35;;;;;;;4.50;2.00;;;;;;;16.29;34.46;100281.76;4606203;75;20945;-79
2022/05/18 09:41:45;;;;;;;8.20;2.15;;;;;;;16.65;34.38;100278.92;4582969;75;20965;-81
2022/05/18 09:47:56;;;;;;;3.17;1.72;;;;;;;17.13;35.45;100274.09;4613040;75;20972;-81
2022/05/18 09:53:59;;;;;;;4.95;2.15;;;;;;;18.41;33.87;100270.69;4616500;75;20998;-81
2022/05/18 10:00:09;;;;;;;4.42;1.82;;;;;;;18.88;34.24;100273.59;4610236;75;21018;-80
2022/05/18 10:12:43;;;;;;;3.90;1.67;;;;;;;19.83;34.16;100275.41;4618084;75;21006;-81
2022/05/18 10:18:54;;;;;;;4.42;1.52;;;;;;;19.78;34.09;100270.89;4589811;75;21890;-82
2022/05/18 10:25:13;;;;;;;7.95;2.12;;;;;;;20.20;34.36;100260.28;4605519;75;20968;-81
2022/05/18 10:31:32;;;;;;;7.03;1.55;;;;;;;20.79;33.20;100260.16;4612037;75;21566;-81
2022/05/18 10:37:38;;;;;;;5.28;2.00;;;;;;;20.55;33.68;100246.67;4588005;75;21548;-80
2022/05/18 10:44:02;;;;;;;3.98;1.85;;;;;;;20.82;32.52;100239.26;4563859;75;21022;-81
2022/05/18 10:50:36;;;;;;;4.87;1.50;;;;;;;21.30;32.11;100244.69;4591184;75;21047;-82
2022/05/18 10:56:37;;;;;;;7.45;1.30;;;;;;;21.40;31.32;100240.98;4616702;75;20975;-82
2022/05/18 11:03:12;;;;;;;2.90;1.30;;;;;;;21.53;31.64;100233.03;4575117;75;21015;-81
2022/05/18 11:09:30;;;;;;;3.22;1.10;;;;;;;22.48;30.95;100226.60;4494467;75;21000;-82
2022/05/18 11:15:59;;;;;;;4.53;1.37;;;;;;;22.48;30.95;100226.60;4589883;75;22028;-82
2022/05/18 11:22:30;;;;;;;3.27;1.17;;;;;;;23.08;29.46;100221.48;4595891;75;21009;-83
2022/05/18 11:28:43;;;;;;;3.87;1.00;;;;;;;23.02;30.24;100219.02;4598337;75;21622;-82
2022/05/18 11:35:16;;;;;;;4.08;1.07;;;;;;;23.45;29.66;100218.16;4585596;75;21066;-82
2022/05/18 11:41:49;;;;;;;4.67;1.27;;;;;;;23.17;28.16;100212.54;4600244;75;21018;-82
2022/05/18 11:48:30;;;;;;;5.00;0.95;;;;;;;23.16;28.16;100208.18;4606074;75;21000;-83
2022/05/18 11:54:58;;;;;;;2.58;0.60;;;;;;;23.16;28.39;100203.36;4585058;75;20984;-82
2022/05/18 12:01:07;;;;;;;3.52;0.75;;;;;;;22.87;28.30;100206.56;4591559;75;21039;-82
2022/05/18 12:07:20;;;;;;;4.00;1.75;;;;;;;22.65;27.74;100199.81;4586366;75;20966;-81
2022/05/18 12:13:37;;;;;;;3.12;0.82;;;;;;;22.28;26.53;100197.87;4591752;75;21020;-83
2022/05/18 12:20:16;;;;;;;3.33;0.98;;;;;;;21.63;27.41;100201.45;4605066;75;21682;-82
2022/05/18 12:26:21;;;;;;;4.78;0.75;;;;;;;21.52;27.46;100198.62;4595017;75;20997;-83
2022/05/18 12:32:23;;;;;;;1.62;0.80;;;;;;;20.89;27.41;100205.00;4633358;75;21019;-82
2022/05/18 12:38:47;;;;;;;3.17;0.65;;;;;;;20.50;27.02;100200.45;4668462;75;20999;-81
2022/05/18 12:44:58;;;;;;;4.60;0.88;;;;;;;20.31;26.90;100194.88;4631116;75;20980;-83
2022/05/18 12:51:25;;;;;;;3.17;0.70;;;;;;;20.23;27.02;100189.95;4633594;75;21006;-82
2022/05/18 12:57:49;;;;;;;2.00;0.70;;;;;;;20.09;26.99;100187.89;4636246;75;21028;-82
2022/05/18 13:03:59;;;;;;;5.30;0.82;;;;;;;19.96;26.74;100184.81;4659278;75;21824;-81
2022/05/18 13:10:15;;;;;;;1.87;0.80;;;;;;;19.71;26.57;100184.21;4632651;75;21006;-82
2022/05/18 13:16:16;;;;;;;5.03;0.90;;;;;;;19.69;25.30;100174.09;4634404;75;21019;-82
2022/05/18 13:22:23;;;;;;;3.60;0.80;;;;;;;19.52;26.71;100173.63;4627346;75;20989;-83
2022/05/18 13:28:28;;;;;;;3.05;0.82;;;;;;;19.56;26.94;100167.43;4641153;75;21594;-82
2022/05/18 13:34:46;;;;;;;5.90;0.60;;;;;;;19.39;27.11;100163.38;4589905;75;20933;-82
2022/05/18 13:40:55;;;;;;;2.92;0.80;;;;;;;19.39;27.14;100163.38;4589383;75;21020;-83
2022/05/18 13:46:58;;;;;;;3.83;0.80;;;;;;;19.64;27.59;100156.47;4603860;75;21041;-82
2022/05/18 13:53:04;;;;;;;2.12;0.98;;;;;;;19.79;27.94;100153.80;4594728;75;21052;-83
2022/05/18 13:59:29;;;;;;;1.32;0.70;;;;;;;19.95;27.34;100146.32;4599721;75;21005;-82
2022/05/18 14:05:35;;;;;;;3.52;0.93;;;;;;;20.06;27.67;100140.84;4571969;75;20939;-83
2022/05/18 14:11:36;;;;;;;2.30;1.00;;;;;;;20.19;27.48;100141.95;4603966;75;21882;-83
2022/05/18 14:17:38;;;;;;;2.25;0.70;;;;;;;20.04;27.68;100139.09;4576482;75;21013;-82
2022/05/18 14:24:05;;;;;;;1.75;0.60;;;;;;;19.96;27.31;100131.22;4600347;75;21003;-82
2022/05/18 14:30:17;;;;;;;2.05;0.70;;;;;;;19.60;27.36;100129.33;4580073;75;21523;-81
2022/05/18 14:36:38;;;;;;;4.15;0.82;;;;;;;19.62;27.93;100124.13;4567267;75;21492;-82
2022/05/18 14:42:47;;;;;;;2.05;0.60;;;;;;;19.38;27.43;100125.12;4601597;75;21061;-82
2022/05/18 14:49:02;;;;;;;1.20;0.53;;;;;;;19.73;27.86;100119.28;4591323;75;20979;-82
2022/05/18 14:55:15;;;;;;;1.25;0.60;;;;;;;19.89;27.55;100116.78;4566143;75;21466;-82
2022/05/18 15:01:45;;;;;;;6.37;1.35;;;;;;;19.92;27.99;100122.13;4589963;75;21038;-82
2022/05/18 15:07:49;;;;;;;1.32;0.70;;;;;;;19.99;28.02;100121.46;4580662;75;21100;-81
2022/05/18 15:13:56;;;;;;;1.57;0.60;;;;;;;19.92;27.59;100120.12;4590321;75;20989;-81
2022/05/18 15:20:08;;;;;;;3.27;0.77;;;;;;;19.75;27.82;100116.09;4582679;75;21859;-82
2022/05/18 15:26:41;;;;;;;1.15;0.70;;;;;;;19.59;28.14;100110.30;4542128;75;21228;-82
2022/05/18 15:32:43;;;;;;;2.92;0.70;;;;;;;19.40;28.31;100103.88;4619884;75;21016;-82
2022/05/18 15:38:49;;;;;;;1.75;0.70;;;;;;;19.22;28.16;100103.97;4593448;75;21055;-82
2022/05/18 15:44:51;;;;;;;3.40;0.72;;;;;;;18.93;27.15;100106.72;4582825;75;20956;-82
2022/05/18 15:50:53;;;;;;;0.80;0.45;;;;;;;18.68;27.03;100108.20;4606513;75;21534;-82
2022/05/18 15:56:54;;;;;;;1.25;0.50;;;;;;;18.55;26.98;100109.85;4602261;75;21052;-83
2022/05/18 16:02:56;;;;;;;2.85;0.60;;;;;;;18.48;26.81;100109.86;4613057;75;21050;-81
2022/05/18 16:08:57;;;;;;;1.20;0.60;;;;;;;18.39;26.73;100107.31;4559419;77;20993;-80
2022/05/18 16:14:59;;;;;;;0.93;0.50;;;;;;;18.29;26.62;100112.27;4557451;77;20930;-81
2022/05/18 16:21:05;;;;;;;0.55;0.47;;;;;;;18.15;25.42;100106.76;4554153;77;20954;-82
2022/05/18 16:27:07;;;;;;;1.73;0.60;;;;;;;18.03;26.18;100110.73;4549940;77;21394;-82
2022/05/18 16:33:09;;;;;;;1.62;0.57;;;;;;;17.99;26.25;100107.19;4559280;77;21011;-82
2022/05/18 16:39:10;;;;;;;1.10;0.55;;;;;;;17.96;26.36;100105.80;4559775;77;21354;-81
2022/05/18 16:45:17;;;;;;;10.43;1.10;;;;;;;17.93;26.68;100102.44;4562539;77;20993;-80
2022/05/18 16:51:19;;;;;;;4.87;0.70;;;;;;;17.79;27.06;100101.06;4560913;77;21028;-82
2022/05/18 16:57:28;;;;;;;0.78;0.42;;;;;;;17.71;27.08;100099.48;4563434;77;20987;-82
2022/05/18 17:03:30;;;;;;;3.20;0.70;;;;;;;17.59;27.24;100095.11;4564270;77;21020;-80
2022/05/18 17:09:31;;;;;;;1.95;0.95;;;;;;;17.49;27.39;100094.53;4566809;77;21039;-81
2022/05/18 17:15:33;;;;;;;6.15;0.70;;;;;;;17.19;27.45;100096.22;4426711;76;10000483;-79
2022/05/18 17:21:34;;;;;;;1.27;0.60;;;;;;;17.19;27.45;100096.22;4581046;77;20979;-81
2022/05/18 17:27:37;;;;;;;4.20;0.78;;;;;;;17.13;27.59;100092.88;4564627;77;20996;-81
2022/05/18 17:33:40;;;;;;;2.20;0.50;;;;;;;16.99;27.66;100094.22;4554753;77;21045;-80
2022/05/18 17:39:41;;;;;;;3.47;0.65;;;;;;;16.88;27.80;100094.17;4551571;77;21005;-82
2022/05/18 17:45:42;;;;;;;4.47;0.82;;;;;;;16.63;28.22;100104.34;4553039;77;21589;-81
2022/05/18 17:51:46;;;;;;;2.70;0.50;;;;;;;16.44;28.62;100108.82;4551000;77;20956;-82
2022/05/18 17:57:48;;;;;;;4.55;0.68;;;;;;;16.19;28.83;100103.71;4498380;76;20953;-81
2022/05/18 18:03:53;;;;;;;4.80;0.85;;;;;;;15.97;29.32;100110.27;4481156;78;20967;-80
2022/05/18 18:09:56;;;;;;;8.65;1.67;;;;;;;15.73;29.98;100106.73;4552234;77;20970;-82
2022/05/18 18:16:00;;;;;;;7.92;1.32;;;;;;;15.43;30.83;100105.48;4426293;77;9999790;-81
2022/05/18 18:22:02;;;;;;;3.95;1.22;;;;;;;15.07;31.95;100109.61;4544191;77;20984;-81
2022/05/18 18:28:07;;;;;;;7.37;2.30;;;;;;;14.52;32.68;100118.22;4526713;77;20948;-81
2022/05/18 18:34:09;;;;;;;5.40;2.00;;;;;;;14.23;33.31;100120.36;4548547;77;21014;-83
2022/05/18 18:40:20;;;;;;;7.50;2.05;;;;;;;13.87;34.07;100136.13;4504794;77;21034;-81
2022/05/18 18:46:34;;;;;;;4.80;1.57;;;;;;;13.62;34.83;100140.43;4493573;77;21650;-81
2022/05/18 18:58:59;;;;;;;6.15;2.60;;;;;;;12.97;36.11;100151.95;4547322;77;21044;-81
2022/05/18 19:05:00;;;;;;;7.70;2.87;;;;;;;12.61;36.93;100159.26;4549255;77;22384;-81
2022/05/18 19:11:02;;;;;;;4.70;2.35;;;;;;;12.30;37.31;100162.91;4552306;77;21008;-80
2022/05/18 19:17:03;;;;;;;10.93;3.30;;;;;;;12.08;38.22;100162.77;4559313;77;21521;-81
2022/05/18 19:23:07;;;;;;;6.78;3.90;;;;;;;11.86;38.23;100173.01;4558299;77;20966;-80
2022/05/18 19:29:10;;;;;;;9.08;3.90;;;;;;;11.60;40.82;100170.78;4552997;77;20949;-81
2022/05/18 19:35:12;;;;;;;8.28;3.35;;;;;;;11.28;40.98;100173.25;4566005;77;20981;-81
2022/05/18 19:41:14;;;;;;;9.33;3.85;;;;;;;11.00;41.76;100171.11;4574288;77;20984;-81
2022/05/18 19:47:15;;;;;;;7.97;3.52;;;;;;;10.83;43.23;100178.26;4574394;77;22009;-80
2022/05/18 19:53:17;;;;;;;7.53;3.67;;;;;;;10.63;44.30;100176.50;4538624;77;20997;-80
2022/05/18 19:59:19;;;;;;;7.53;4.15;;;;;;;10.44;43.70;100170.28;4571336;77;21027;-81
2022/05/18 20:05:20;;;;;;;7.17;3.60;;;;;;;10.25;45.30;100171.45;4556806;77;20972;-81
2022/05/18 20:11:24;;;;;;;5.87;3.90;;;;;;;10.12;45.34;100173.96;4554076;77;21015;-80
2022/05/18 20:17:25;;;;;;;10.03;3.98;;;;;;;9.97;46.56;100171.89;4451165;76;9999797;-80
2022/05/18 20:23:28;;;;;;;8.00;4.08;;;;;;;9.73;47.59;100184.19;4573697;77;21020;-80
2022/05/18 20:29:30;;;;;;;11.20;4.70;;;;;;;9.46;48.36;100180.16;4569245;77;20957;-80
2022/05/18 20:35:31;;;;;;;10.05;4.30;;;;;;;9.26;48.36;100183.77;4570242;77;21036;-80
2022/05/18 20:41:37;;;;;;;11.85;5.08;;;;;;;9.06;48.73;100178.34;4565799;77;20995;-78
2022/05/18 20:47:38;;;;;;;23.10;5.90;;;;;;;8.88;49.75;100178.28;4560686;77;21047;-78
2022/05/18 20:53:40;;;;;;;17.12;6.30;;;;;;;8.76;50.30;100179.58;4566304;77;20985;-80
2022/05/18 20:59:45;;;;;;;13.60;6.10;;;;;;;8.54;50.39;100174.45;4567286;77;20991;-80
2022/05/18 21:05:46;;;;;;;10.53;4.85;;;;;;;8.37;50.34;100175.39;4561011;77;20987;-80
2022/05/18 21:11:47;;;;;;;11.03;5.60;;;;;;;8.32;52.19;100181.03;4563667;76;22271;-80
2022/05/18 21:17:49;;;;;;;10.32;5.78;;;;;;;8.10;52.31;100182.66;4576768;77;21011;-80
2022/05/18 21:23:50;;;;;;;15.53;5.05;;;;;;;7.86;52.63;100184.63;4571239;77;20977;-79
2022/05/18 21:29:52;;;;;;;14.20;5.62;;;;;;;7.77;53.92;100187.16;4562776;76;21024;-78
2022/05/18 21:35:53;;;;;;;13.65;7.10;;;;;;;7.60;54.42;100194.86;4574296;77;21001;-78
2022/05/18 21:41:55;;;;;;;17.77;6.72;;;;;;;7.45;55.40;100201.41;4578341;77;21040;-80
2022/05/18 21:48:00;;;;;;;20.17;8.03;;;;;;;7.30;55.84;100205.98;4569015;77;21052;-78
2022/05/18 21:54:02;;;;;;;15.08;7.37;;;;;;;7.14;55.37;100204.34;4579394;77;21737;-79
2022/05/18 22:00:05;;;;;;;13.38;7.95;;;;;;;7.20;56.30;100207.70;4479153;78;21054;-79
2022/05/18 22:06:09;;;;;;;15.95;7.55;;;;;;;6.98;56.28;100209.26;4577541;77;20953;-79
2022/05/18 22:12:16;;;;;;;22.98;9.08;;;;;;;6.81;56.77;100199.74;4576100;76;21003;-79
2022/05/18 22:18:19;;;;;;;18.80;8.65;;;;;;;6.65;57.41;100203.51;4572758;77;21548;-80
2022/05/18 22:24:20;;;;;;;17.52;8.33;;;;;;;6.49;57.35;100201.01;4586255;76;21854;-80
2022/05/18 22:30:25;;;;;;;20.97;8.98;;;;;;;6.36;57.42;100196.50;4574380;77;21041;-79
2022/05/18 22:36:27;;;;;;;18.65;8.95;;;;;;;6.19;58.32;100191.04;4552823;77;20968;-79
2022/05/18 22:42:32;;;;;;;16.17;7.47;;;;;;;6.08;57.98;100191.91;4548628;77;20985;-79
2022/05/18 22:48:34;;;;;;;13.60;7.47;;;;;;;5.95;58.92;100186.02;4551167;77;21064;-78
2022/05/18 22:54:35;;;;;;;14.45;7.35;;;;;;;5.95;60.28;100200.97;4560492;76;20954;-78
2022/05/18 23:00:38;;;;;;;18.87;8.63;;;;;;;6.08;59.28;100197.89;4556058;77;21017;-79
2022/05/18 23:06:39;;;;;;;23.43;8.13;;;;;;;6.02;60.16;100195.08;4553041;77;21005;-79
2022/05/18 23:12:40;;;;;;;14.87;8.40;;;;;;;5.90;60.86;100194.31;4548389;77;20985;-79
2022/05/18 23:18:43;;;;;;;18.15;8.73;;;;;;;5.84;61.49;100193.44;4557944;76;21539;-77
2022/05/18 23:24:45;;;;;;;18.98;8.70;;;;;;;5.64;61.31;100181.72;4556349;77;21015;-79
2022/05/18 23:30:47;;;;;;;17.73;9.43;;;;;;;5.46;62.06;100190.92;4556198;77;21108;-79
2022/05/18 23:36:48;;;;;;;15.32;8.13;;;;;;;5.33;61.85;100185.83;4576359;76;21015;-79
2022/05/18 23:42:50;;;;;;;15.93;8.38;;;;;;;5.23;62.79;100183.36;4569501;77;20987;-79
2022/05/18 23:48:59;;;;;;;13.62;7.47;;;;;;;5.21;63.37;100182.09;4572196;77;20964;-79
2022/05/18 23:55:00;;;;;;;14.75;7.40;;;;;;;5.41;63.91;100183.72;4566658;77;21038;-79
